Time;durP1;ratioP1;P1;durP2;ratioP2;P2;SDS_P1;SDS_P2;PMS_P1;PMS_P2;Temp;Humidity;BMP_temperature;BMP_pressure;BME280_temperature;BME280_humidity;BME280_pressure;Samples;Min_cycle;Max_cycle;Signal;HPM_P1;HPM_P2
2021/12/05 00:22:34;;;;;;;;;;;;;;;;;;7395927;19;19939;-48
2021/12/05 00:25:04;;;;;;;;;;;;;;;;;;7396497;19;19943;-46
2021/12/05 00:27:38;;;;;;;;;;;;;;;;;;7396139;19;19922;-48
2021/12/05 00:46:04;;;;;;;;;;;;;;;;;;7395672;19;19919;-54
2021/12/05 00:49:01;;;;;;;;;;;;;;;;;;7395653;19;19948;-51
2021/12/05 01:15:14;;;;;;;;;;;;;;;;;;7392962;19;20317;-62
2021/12/05 01:17:58;;;;;;;;;;;;;;;;;;7394320;19;20335;-47
2021/12/05 01:20:28;;;;;;;;;;;;;;;;;;7397156;19;19953;-45
2021/12/05 01:23:12;;;;;;;;;;;;;;;;;;7392598;19;19919;-60
2021/12/05 01:28:47;;;;;;;;;;;;;;;;;;7392936;19;19919;-63
2021/12/05 01:32:04;;;;;;;;;;;;;;;;;;7393940;19;19962;-53
2021/12/05 01:34:28;;;;;;;;;;;;;;;;;;7390572;19;19918;-62
2021/12/05 01:39:59;;;;;;;;;;;;;;;;;;7394066;19;19951;-48
2021/12/05 01:48:03;;;;;;;;;;;;;;;;;;7395384;19;19915;-54
2021/12/05 01:56:49;;;;;;;;;;;;;;;;;;7391856;19;19918;-61
2021/12/05 01:58:53;;;;;;;;;;;;;;;;;;7390205;19;19936;-51
2021/12/05 02:42:28;;;;;;;;;;;;;;;;;;7390139;19;19925;-51
2021/12/05 02:44:59;;;;;;;;;;;;;;;;;;7390174;19;19915;-48
2021/12/05 02:47:28;;;;;;;;;;;;;;;;;;7390017;19;20324;-56
2021/12/05 02:49:57;;;;;;;;;;;;;;;;;;7392061;19;19919;-47
2021/12/05 02:52:30;;;;;;;;;;;;;;;;;;7392130;19;19915;-61
2021/12/05 02:55:02;;;;;;;;;;;;;;;;;;7390325;19;19919;-55
2021/12/05 02:58:22;;;;;;;;;;;;;;;;;;7391777;19;20296;-60
2021/12/05 03:00:32;;;;;;;;;;;;;;;;;;7389298;19;19926;-54
2021/12/05 03:03:01;;;;;;;;;;;;;;;;;;7389666;19;19918;-50
2021/12/05 03:05:29;;;;;;;;;;;;;;;;;;7390995;19;20360;-53
2021/12/05 03:08:01;;;;;;;;;;;;;;;;;;7391991;19;19960;-48
2021/12/05 03:10:30;;;;;;;;;;;;;;;;;;7390761;19;19923;-56
2021/12/05 03:12:57;;;;;;;;;;;;;;;;;;7391659;19;19925;-57
2021/12/05 03:15:27;;;;;;;;;;;;;;;;;;7388069;19;19919;-60
2021/12/05 03:17:54;;;;;;;;;;;;;;;;;;7389676;19;19922;-48
2021/12/05 03:20:22;;;;;;;;;;;;;;;;;;7394398;19;19915;-51
2021/12/05 03:22:50;;;;;;;;;;;;;;;;;;7388470;19;19936;-48
2021/12/05 03:25:18;;;;;;;;;;;;;;;;;;7390749;19;19914;-62
2021/12/05 03:27:46;;;;;;;;;;;;;;;;;;7390967;19;19943;-62
2021/12/05 03:30:18;;;;;;;;;;;;;;;;;;7395058;19;19923;-62
2021/12/05 03:32:48;;;;;;;;;;;;;;;;;;7398386;19;19931;-47
2021/12/05 03:35:17;;;;;;;;;;;;;;;;;;7395586;19;20513;-53
2021/12/05 03:37:47;;;;;;;;;;;;;;;;;;7397784;19;19911;-62
2021/12/05 03:40:16;;;;;;;;;;;;;;;;;;7395701;19;19919;-62
2021/12/05 03:42:45;;;;;;;;;;;;;;;;;;7396430;19;19935;-60
2021/12/05 03:45:19;;;;;;;;;;;;;;;;;;7397906;19;19919;-52
2021/12/05 03:47:46;;;;;;;;;;;;;;;;;;7397923;19;20400;-53
2021/12/05 03:50:14;;;;;;;;;;;;;;;;;;7396150;19;20373;-48
2021/12/05 03:52:45;;;;;;;;;;;;;;;;;;7397713;19;19922;-51
2021/12/05 03:55:13;;;;;;;;;;;;;;;;;;7393255;19;19985;-46
2021/12/05 03:57:40;;;;;;;;;;;;;;;;;;7397621;19;19982;-50
2021/12/05 04:00:09;;;;;;;;;;;;;;;;;;7396892;19;20358;-46
2021/12/05 04:02:45;;;;;;;;;;;;;;;;;;7396719;19;20311;-62
2021/12/05 04:05:17;;;;;;;;;;;;;;;;;;7395415;19;19996;-51
2021/12/05 04:07:46;;;;;;;;;;;;;;;;;;7397462;19;19928;-57
2021/12/05 04:10:14;;;;;;;;;;;;;;;;;;7397010;19;19915;-49
2021/12/05 04:12:44;;;;;;;;;;;;;;;;;;7396748;19;19920;-51
2021/12/05 04:15:13;;;;;;;;;;;;;;;;;;7393119;19;20032;-50
2021/12/05 04:17:41;;;;;;;;;;;;;;;;;;7396572;19;19921;-50
2021/12/05 04:20:10;;;;;;;;;;;;;;;;;;7398805;19;19922;-45
2021/12/05 04:22:38;;;;;;;;;;;;;;;;;;7394481;19;20328;-45
2021/12/05 04:25:12;;;;;;;;;;;;;;;;;;7395695;19;19939;-46
2021/12/05 04:27:41;;;;;;;;;;;;;;;;;;7397004;19;19914;-62
2021/12/05 04:30:10;;;;;;;;;;;;;;;;;;7394793;19;19932;-46
2021/12/05 04:32:38;;;;;;;;;;;;;;;;;;7394958;19;19928;-45
2021/12/05 04:35:06;;;;;;;;;;;;;;;;;;7394027;19;19915;-62
2021/12/05 04:37:33;;;;;;;;;;;;;;;;;;7395537;19;20332;-50
2021/12/05 04:40:01;;;;;;;;;;;;;;;;;;7394628;19;19922;-60
2021/12/05 04:42:30;;;;;;;;;;;;;;;;;;7395863;19;19915;-50
2021/12/05 04:45:00;;;;;;;;;;;;;;;;;;7394332;19;19910;-52
2021/12/05 04:47:27;;;;;;;;;;;;;;;;;;7396433;19;19934;-50
2021/12/05 04:49:55;;;;;;;;;;;;;;;;;;7395973;19;20327;-57
2021/12/05 04:52:24;;;;;;;;;;;;;;;;;;7393736;19;19988;-56
2021/12/05 04:54:51;;;;;;;;;;;;;;;;;;7392156;19;20348;-61
2021/12/05 04:57:19;;;;;;;;;;;;;;;;;;7395685;19;19919;-50
2021/12/05 04:59:50;;;;;;;;;;;;;;;;;;7393769;19;20360;-51
2021/12/05 05:02:18;;;;;;;;;;;;;;;;;;7393658;19;20249;-55
2021/12/05 05:04:48;;;;;;;;;;;;;;;;;;7395410;19;19919;-62
2021/12/05 05:07:22;;;;;;;;;;;;;;;;;;7394543;19;19914;-48
2021/12/05 05:09:51;;;;;;;;;;;;;;;;;;7395010;19;19949;-54
2021/12/05 05:12:18;;;;;;;;;;;;;;;;;;7394980;19;19918;-53
2021/12/05 05:14:46;;;;;;;;;;;;;;;;;;7393737;19;19915;-59
2021/12/05 05:17:14;;;;;;;;;;;;;;;;;;7394949;19;19915;-49
2021/12/05 05:19:47;;;;;;;;;;;;;;;;;;7395793;19;19918;-58
2021/12/05 05:46:17;;;;;;;;;;;;;;;;;;7393813;19;19917;-54
2021/12/05 05:51:18;;;;;;;;;;;;;;;;;;7392082;19;20276;-50
2021/12/05 05:53:48;;;;;;;;;;;;;;;;;;7391764;19;19918;-52
2021/12/05 05:56:22;;;;;;;;;;;;;;;;;;7393857;19;19931;-51
2021/12/05 05:58:56;;;;;;;;;;;;;;;;;;7393732;19;19964;-61
2021/12/05 06:03:20;;;;;;;;;;;;;;;;;;7393356;19;19918;-52
2021/12/05 06:04:20;;;;;;;;;;;;;;;;;;7392024;19;20297;-64
2021/12/05 06:06:50;;;;;;;;;;;;;;;;;;7392666;19;20404;-46
2021/12/05 06:09:17;;;;;;;;;;;;;;;;;;7393480;19;19923;-45
2021/12/05 06:11:44;;;;;;;;;;;;;;;;;;7392919;19;20286;-62
2021/12/05 06:14:12;;;;;;;;;;;;;;;;;;7392716;19;19914;-49
2021/12/05 06:16:39;;;;;;;;;;;;;;;;;;7392840;19;19921;-45
2021/12/05 06:19:07;;;;;;;;;;;;;;;;;;7392879;19;19923;-45
2021/12/05 06:21:34;;;;;;;;;;;;;;;;;;7392596;19;19914;-49
2021/12/05 06:24:03;;;;;;;;;;;;;;;;;;7390915;19;19942;-44
2021/12/05 06:26:32;;;;;;;;;;;;;;;;;;7392694;19;19917;-64
2021/12/05 06:47:59;;;;;;;;;;;;;;;;;;7391126;19;19927;-46
2021/12/05 06:50:27;;;;;;;;;;;;;;;;;;7391874;19;19910;-50
2021/12/05 06:52:54;;;;;;;;;;;;;;;;;;7392062;19;19919;-52
2021/12/05 06:55:21;;;;;;;;;;;;;;;;;;7385235;19;19930;-47
2021/12/05 06:57:49;;;;;;;;;;;;;;;;;;7387406;19;19922;-54
2021/12/05 07:00:21;;;;;;;;;;;;;;;;;;7387303;19;20331;-59
2021/12/05 07:02:48;;;;;;;;;;;;;;;;;;7387616;19;20607;-54
2021/12/05 07:08:12;;;;;;;;;;;;;;;;;;7393087;19;19929;-47
2021/12/05 07:15:49;;;;;;;;;;;;;;;;;;7393077;19;19918;-58
2021/12/05 07:24:02;;;;;;;;;;;;;;;;;;7392139;19;20340;-52
2021/12/05 07:40:23;;;;;;;;;;;;;;;;;;7393359;19;19919;-49
2021/12/05 07:42:51;;;;;;;;;;;;;;;;;;7393807;19;20340;-49
2021/12/05 07:45:23;;;;;;;;;;;;;;;;;;7393716;19;19915;-45
2021/12/05 07:47:53;;;;;;;;;;;;;;;;;;7393996;19;19974;-46
2021/12/05 07:50:29;;;;;;;;;;;;;;;;;;7393932;19;20395;-48
2021/12/05 07:53:05;;;;;;;;;;;;;;;;;;7394980;19;19922;-55
2021/12/05 07:55:39;;;;;;;;;;;;;;;;;;7392294;19;19921;-48
2021/12/05 08:14:54;;;;;;;;;;;;;;;;;;7390188;19;19919;-52
2021/12/05 08:17:21;;;;;;;;;;;;;;;;;;7392069;19;20404;-64
2021/12/05 08:19:48;;;;;;;;;;;;;;;;;;7394110;19;19914;-63
2021/12/05 08:22:16;;;;;;;;;;;;;;;;;;7392677;19;19932;-62
2021/12/05 08:24:47;;;;;;;;;;;;;;;;;;7389979;19;19919;-48
2021/12/05 08:27:15;;;;;;;;;;;;;;;;;;7392150;19;19929;-50
2021/12/05 08:29:54;;;;;;;;;;;;;;;;;;7392710;19;19997;-48
2021/12/05 08:35:18;;;;;;;;;;;;;;;;;;7392039;19;19925;-46
2021/12/05 09:50:53;;;;;;;;;;;;;;;;;;7393963;19;19935;-52
2021/12/05 10:11:34;;;;;;;;;;;;;;;;;;7390997;19;19993;-45
2021/12/05 10:14:56;;;;;;;;;;;;;;;;;;7393442;19;20252;-50
2021/12/05 10:36:00;;;;;;;;;;;;;;;;;;7391240;19;19919;-68
2021/12/05 10:38:32;;;;;;;;;;;;;;;;;;7393164;19;19983;-55
2021/12/05 10:41:18;;;;;;;;;;;;;;;;;;7391313;19;20324;-48
2021/12/05 10:43:47;;;;;;;;;;;;;;;;;;7392224;19;19982;-46
2021/12/05 10:46:16;;;;;;;;;;;;;;;;;;7391298;19;19915;-62
2021/12/05 10:48:48;;;;;;;;;;;;;;;;;;7394685;19;19925;-57
2021/12/05 10:51:18;;;;;;;;;;;;;;;;;;7392127;19;19926;-46
2021/12/05 10:53:53;;;;;;;;;;;;;;;;;;7391706;19;19950;-48
2021/12/05 10:56:29;;;;;;;;;;;;;;;;;;7390595;19;20348;-51
2021/12/05 10:59:03;;;;;;;;;;;;;;;;;;7391298;19;19926;-54
2021/12/05 11:01:40;;;;;;;;;;;;;;;;;;7391264;19;19932;-53
2021/12/05 11:04:08;;;;;;;;;;;;;;;;;;7391428;19;19923;-49
2021/12/05 11:06:49;;;;;;;;;;;;;;;;;;7391901;19;19991;-48
2021/12/05 11:09:21;;;;;;;;;;;;;;;;;;7391985;19;20075;-47
2021/12/05 11:11:51;;;;;;;;;;;;;;;;;;7390640;19;19939;-47
2021/12/05 11:14:21;;;;;;;;;;;;;;;;;;7389595;19;20344;-64
2021/12/05 11:16:48;;;;;;;;;;;;;;;;;;7385438;19;19919;-55
2021/12/05 11:19:18;;;;;;;;;;;;;;;;;;7389392;19;19914;-46
2021/12/05 11:21:47;;;;;;;;;;;;;;;;;;7388703;19;19967;-51
2021/12/05 11:24:35;;;;;;;;;;;;;;;;;;7391455;19;19922;-47
2021/12/05 11:27:12;;;;;;;;;;;;;;;;;;7389600;19;19939;-50
2021/12/05 11:29:44;;;;;;;;;;;;;;;;;;7390572;19;20252;-45
2021/12/05 11:32:15;;;;;;;;;;;;;;;;;;7390310;19;19919;-53
2021/12/05 11:34:43;;;;;;;;;;;;;;;;;;7389036;19;20005;-51
2021/12/05 11:37:10;;;;;;;;;;;;;;;;;;7388480;19;19914;-61
2021/12/05 11:39:37;;;;;;;;;;;;;;;;;;7389054;19;19918;-48
2021/12/05 11:42:12;;;;;;;;;;;;;;;;;;7391362;19;20112;-61
2021/12/05 11:44:41;;;;;;;;;;;;;;;;;;7390686;19;19939;-56
2021/12/05 11:47:12;;;;;;;;;;;;;;;;;;7389540;19;19925;-52
2021/12/05 11:49:39;;;;;;;;;;;;;;;;;;7390467;19;19911;-49
2021/12/05 11:52:06;;;;;;;;;;;;;;;;;;7400528;19;19915;-54
2021/12/05 11:54:37;;;;;;;;;;;;;;;;;;7397618;19;19981;-47
2021/12/05 11:57:27;;;;;;;;;;;;;;;;;;7396895;19;19929;-52
2021/12/05 12:00:00;;;;;;;;;;;;;;;;;;7398008;19;19997;-60
2021/12/05 12:02:33;;;;;;;;;;;;;;;;;;7396223;19;19922;-47
2021/12/05 12:05:00;;;;;;;;;;;;;;;;;;7397339;19;19914;-46
2021/12/05 12:07:34;;;;;;;;;;;;;;;;;;7397377;19;19919;-53
2021/12/05 12:10:04;;;;;;;;;;;;;;;;;;7397394;19;20254;-46
2021/12/05 12:12:32;;;;;;;;;;;;;;;;;;7397238;19;19943;-56
2021/12/05 12:14:59;;;;;;;;;;;;;;;;;;7396731;19;19979;-50
2021/12/05 12:17:27;;;;;;;;;;;;;;;;;;7394276;19;19923;-54
2021/12/05 12:19:55;;;;;;;;;;;;;;;;;;7399193;19;19918;-47
2021/12/05 12:22:26;;;;;;;;;;;;;;;;;;7395997;19;19982;-63
2021/12/05 12:24:55;;;;;;;;;;;;;;;;;;7394371;19;19922;-50
2021/12/05 12:27:22;;;;;;;;;;;;;;;;;;7396827;19;19922;-56
2021/12/05 12:29:52;;;;;;;;;;;;;;;;;;7396726;19;19923;-49
2021/12/05 12:32:24;;;;;;;;;;;;;;;;;;7396580;19;19967;-54
2021/12/05 12:35:12;;;;;;;;;;;;;;;;;;7399265;19;19999;-55
2021/12/05 12:37:52;;;;;;;;;;;;;;;;;;7395716;19;19911;-49
2021/12/05 12:40:38;;;;;;;;;;;;;;;;;;7395634;19;19915;-64
2021/12/05 12:43:07;;;;;;;;;;;;;;;;;;7393540;19;19918;-46
2021/12/05 12:45:36;;;;;;;;;;;;;;;;;;7394803;19;19914;-49
2021/12/05 12:48:08;;;;;;;;;;;;;;;;;;7397130;19;19926;-50
2021/12/05 12:50:53;;;;;;;;;;;;;;;;;;7395423;19;20340;-53
2021/12/05 12:53:27;;;;;;;;;;;;;;;;;;7394950;19;20011;-53
2021/12/05 12:56:06;;;;;;;;;;;;;;;;;;7393257;19;19923;-61
2021/12/05 12:58:35;;;;;;;;;;;;;;;;;;7395832;19;19918;-49
2021/12/05 13:12:50;;;;;;;;;;;;;;;;;;7394530;19;19970;-52
2021/12/05 13:15:35;;;;;;;;;;;;;;;;;;7393929;19;19957;-51
2021/12/05 13:18:05;;;;;;;;;;;;;;;;;;7399382;19;19970;-60
2021/12/05 13:20:41;;;;;;;;;;;;;;;;;;7397567;19;19926;-51
2021/12/05 13:23:08;;;;;;;;;;;;;;;;;;7391830;19;19947;-50
2021/12/05 13:25:55;;;;;;;;;;;;;;;;;;7393432;19;19915;-51
2021/12/05 13:28:30;;;;;;;;;;;;;;;;;;7394122;19;19914;-57
2021/12/05 13:30:58;;;;;;;;;;;;;;;;;;7394477;19;19925;-51
2021/12/05 13:33:30;;;;;;;;;;;;;;;;;;7392423;19;20259;-51
2021/12/05 13:36:18;;;;;;;;;;;;;;;;;;7394244;19;19914;-55
2021/12/05 13:38:47;;;;;;;;;;;;;;;;;;7393394;19;20139;-52
2021/12/05 13:41:16;;;;;;;;;;;;;;;;;;7393969;19;19982;-55
2021/12/05 13:43:56;;;;;;;;;;;;;;;;;;7396885;19;19978;-50
2021/12/05 13:46:33;;;;;;;;;;;;;;;;;;7393981;19;19915;-50
2021/12/05 13:49:23;;;;;;;;;;;;;;;;;;7393713;19;20004;-50
2021/12/05 13:51:50;;;;;;;;;;;;;;;;;;7393501;19;19935;-54
2021/12/05 13:54:24;;;;;;;;;;;;;;;;;;7392585;19;20364;-50
2021/12/05 13:57:06;;;;;;;;;;;;;;;;;;7392726;19;19923;-49
2021/12/05 13:59:34;;;;;;;;;;;;;;;;;;7391788;19;19915;-47
2021/12/05 14:02:02;;;;;;;;;;;;;;;;;;7392586;19;20355;-56
2021/12/05 14:04:34;;;;;;;;;;;;;;;;;;7392811;19;20336;-49
2021/12/05 14:07:04;;;;;;;;;;;;;;;;;;7392313;19;19922;-47
2021/12/05 14:09:36;;;;;;;;;;;;;;;;;;7392801;19;20343;-54
2021/12/05 14:12:05;;;;;;;;;;;;;;;;;;7392982;19;19978;-50
2021/12/05 14:14:35;;;;;;;;;;;;;;;;;;7393600;19;19923;-52
2021/12/05 14:17:04;;;;;;;;;;;;;;;;;;7388846;19;20365;-54
2021/12/05 14:19:33;;;;;;;;;;;;;;;;;;7391275;19;20477;-47
2021/12/05 14:22:02;;;;;;;;;;;;;;;;;;7386419;19;19925;-53
2021/12/05 14:24:37;;;;;;;;;;;;;;;;;;7388501;19;19922;-50
2021/12/05 14:27:07;;;;;;;;;;;;;;;;;;7389785;19;19989;-49
2021/12/05 14:29:37;;;;;;;;;;;;;;;;;;7390747;19;19974;-49
2021/12/05 14:32:25;;;;;;;;;;;;;;;;;;7392070;19;19923;-50
2021/12/05 14:34:53;;;;;;;;;;;;;;;;;;7390702;19;20348;-51
2021/12/05 14:37:24;;;;;;;;;;;;;;;;;;7389601;19;19937;-46
2021/12/05 14:39:55;;;;;;;;;;;;;;;;;;7392168;19;20351;-50
2021/12/05 14:42:24;;;;;;;;;;;;;;;;;;7391443;19;19919;-48
2021/12/05 14:44:59;;;;;;;;;;;;;;;;;;7392072;19;19928;-50
2021/12/05 14:47:28;;;;;;;;;;;;;;;;;;7392312;19;19962;-55
2021/12/05 14:50:10;;;;;;;;;;;;;;;;;;7392524;19;19951;-53
2021/12/05 14:52:39;;;;;;;;;;;;;;;;;;7389635;19;20123;-54
2021/12/05 14:55:09;;;;;;;;;;;;;;;;;;7391294;19;19915;-49
2021/12/05 14:57:41;;;;;;;;;;;;;;;;;;7391949;19;19925;-52
2021/12/05 15:00:14;;;;;;;;;;;;;;;;;;7391168;19;19926;-50
2021/12/05 15:02:42;;;;;;;;;;;;;;;;;;7389485;19;19918;-53
2021/12/05 15:05:11;;;;;;;;;;;;;;;;;;7391177;19;19915;-61
2021/12/05 15:07:39;;;;;;;;;;;;;;;;;;7391291;19;19919;-59
2021/12/05 15:10:06;;;;;;;;;;;;;;;;;;7388739;19;19918;-48
2021/12/05 15:12:35;;;;;;;;;;;;;;;;;;7387884;19;19986;-48
2021/12/05 15:15:12;;;;;;;;;;;;;;;;;;7390524;19;19914;-50
2021/12/05 15:17:41;;;;;;;;;;;;;;;;;;7388358;19;19923;-50
2021/12/05 15:20:10;;;;;;;;;;;;;;;;;;7393406;19;20350;-61
2021/12/05 15:22:40;;;;;;;;;;;;;;;;;;7390529;19;19918;-54
2021/12/05 15:25:10;;;;;;;;;;;;;;;;;;7389908;19;19925;-51
2021/12/05 15:27:37;;;;;;;;;;;;;;;;;;7398898;19;19931;-52
2021/12/05 15:30:08;;;;;;;;;;;;;;;;;;7397184;19;19939;-55
2021/12/05 15:32:36;;;;;;;;;;;;;;;;;;7398709;19;19914;-51
2021/12/05 15:35:05;;;;;;;;;;;;;;;;;;7398116;19;19914;-61
2021/12/05 15:37:33;;;;;;;;;;;;;;;;;;7396856;19;19930;-63
2021/12/05 15:40:04;;;;;;;;;;;;;;;;;;7397992;19;19918;-54
2021/12/05 15:42:33;;;;;;;;;;;;;;;;;;7398604;19;19919;-58
2021/12/05 15:45:03;;;;;;;;;;;;;;;;;;7395578;19;19918;-54
2021/12/05 15:47:32;;;;;;;;;;;;;;;;;;7398461;19;19974;-50
2021/12/05 15:50:13;;;;;;;;;;;;;;;;;;7397801;19;19941;-57
2021/12/05 15:52:43;;;;;;;;;;;;;;;;;;7395790;19;19926;-55
2021/12/05 15:55:12;;;;;;;;;;;;;;;;;;7400814;19;19950;-58
2021/12/05 15:57:43;;;;;;;;;;;;;;;;;;7395727;19;19990;-56
2021/12/05 16:00:16;;;;;;;;;;;;;;;;;;7397104;19;19925;-58
2021/12/05 16:02:47;;;;;;;;;;;;;;;;;;7393795;19;19918;-53
2021/12/05 16:05:19;;;;;;;;;;;;;;;;;;7400470;19;19925;-59
2021/12/05 16:07:49;;;;;;;;;;;;;;;;;;7396544;19;20529;-53
2021/12/05 16:10:22;;;;;;;;;;;;;;;;;;7396640;19;19915;-54
2021/12/05 16:16:08;;;;;;;;;;;;;;;;;;7390059;19;20372;-53
2021/12/05 16:18:37;;;;;;;;;;;;;;;;;;7391301;19;19910;-51
2021/12/05 16:21:16;;;;;;;;;;;;;;;;;;7397157;19;19919;-57
2021/12/05 16:23:44;;;;;;;;;;;;;;;;;;7392520;19;19926;-49
2021/12/05 16:26:11;;;;;;;;;;;;;;;;;;7393593;19;19993;-54
2021/12/05 16:28:41;;;;;;;;;;;;;;;;;;7392845;19;19939;-57
2021/12/05 16:31:12;;;;;;;;;;;;;;;;;;7393118;19;19950;-51
2021/12/05 16:33:41;;;;;;;;;;;;;;;;;;7392537;19;19915;-49
2021/12/05 16:36:08;;;;;;;;;;;;;;;;;;7391860;19;19915;-58
2021/12/05 16:38:40;;;;;;;;;;;;;;;;;;7390216;19;19915;-54
2021/12/05 16:41:07;;;;;;;;;;;;;;;;;;7392831;19;19914;-47
2021/12/05 16:43:37;;;;;;;;;;;;;;;;;;7392053;19;20332;-53
2021/12/05 16:46:05;;;;;;;;;;;;;;;;;;7392734;19;20296;-53
2021/12/05 16:48:34;;;;;;;;;;;;;;;;;;7396036;19;19986;-57
2021/12/05 16:51:20;;;;;;;;;;;;;;;;;;7396029;19;19918;-53
2021/12/05 16:53:49;;;;;;;;;;;;;;;;;;7395549;19;19925;-55
2021/12/05 16:56:39;;;;;;;;;;;;;;;;;;7395609;19;20352;-55
2021/12/05 16:59:07;;;;;;;;;;;;;;;;;;7395717;19;19911;-56
2021/12/05 17:01:35;;;;;;;;;;;;;;;;;;7395709;19;20244;-59
2021/12/05 17:04:03;;;;;;;;;;;;;;;;;;7396052;19;19966;-54
2021/12/05 17:06:42;;;;;;;;;;;;;;;;;;7394816;19;19918;-58
2021/12/05 17:09:11;;;;;;;;;;;;;;;;;;7394548;19;19927;-59
2021/12/05 17:11:40;;;;;;;;;;;;;;;;;;7393499;19;19911;-52
2021/12/05 17:14:17;;;;;;;;;;;;;;;;;;7395475;19;19918;-59
2021/12/05 17:16:44;;;;;;;;;;;;;;;;;;7393966;19;20393;-53
2021/12/05 17:19:13;;;;;;;;;;;;;;;;;;7395355;19;20455;-52
2021/12/05 17:21:49;;;;;;;;;;;;;;;;;;7393972;19;20381;-56
2021/12/05 17:24:16;;;;;;;;;;;;;;;;;;7393030;19;20335;-56
2021/12/05 17:26:48;;;;;;;;;;;;;;;;;;7393369;19;19996;-52
2021/12/05 17:29:34;;;;;;;;;;;;;;;;;;7394515;19;19910;-59
2021/12/05 17:32:07;;;;;;;;;;;;;;;;;;7393669;19;19985;-54
2021/12/05 17:34:42;;;;;;;;;;;;;;;;;;7394324;19;19943;-57
2021/12/05 17:37:11;;;;;;;;;;;;;;;;;;7393763;19;19930;-54
2021/12/05 17:39:45;;;;;;;;;;;;;;;;;;7394433;19;19929;-55
2021/12/05 17:42:23;;;;;;;;;;;;;;;;;;7393896;19;19919;-54
2021/12/05 17:44:52;;;;;;;;;;;;;;;;;;7393501;19;19922;-53
2021/12/05 17:47:19;;;;;;;;;;;;;;;;;;7393505;19;19922;-54
2021/12/05 17:49:49;;;;;;;;;;;;;;;;;;7391539;19;19919;-52
2021/12/05 17:52:18;;;;;;;;;;;;;;;;;;7393523;19;19959;-55
2021/12/05 17:57:20;;;;;;;;;;;;;;;;;;7392944;19;19939;-52
2021/12/05 18:05:35;;;;;;;;;;;;;;;;;;7388921;19;19933;-51
2021/12/05 18:08:04;;;;;;;;;;;;;;;;;;7389057;19;19914;-51
2021/12/05 18:10:35;;;;;;;;;;;;;;;;;;7390787;19;19929;-53
2021/12/05 18:13:04;;;;;;;;;;;;;;;;;;7393252;19;19915;-52
2021/12/05 18:15:54;;;;;;;;;;;;;;;;;;7392644;19;19915;-54
2021/12/05 18:18:24;;;;;;;;;;;;;;;;;;7391174;19;19948;-57
2021/12/05 18:20:51;;;;;;;;;;;;;;;;;;7396278;19;19943;-52
2021/12/05 18:23:20;;;;;;;;;;;;;;;;;;7392024;19;19918;-52
2021/12/05 18:25:48;;;;;;;;;;;;;;;;;;7393074;19;19918;-55
2021/12/05 18:28:16;;;;;;;;;;;;;;;;;;7392128;19;19951;-58
2021/12/05 18:30:44;;;;;;;;;;;;;;;;;;7390361;19;19927;-57
2021/12/05 18:33:12;;;;;;;;;;;;;;;;;;7392268;19;19932;-56
2021/12/05 18:35:39;;;;;;;;;;;;;;;;;;7393624;19;19917;-50
2021/12/05 18:38:10;;;;;;;;;;;;;;;;;;7392065;19;19925;-55
2021/12/05 18:40:39;;;;;;;;;;;;;;;;;;7392476;19;20260;-54
2021/12/05 18:43:06;;;;;;;;;;;;;;;;;;7392501;19;19919;-51
2021/12/05 18:45:38;;;;;;;;;;;;;;;;;;7391660;19;19919;-55
2021/12/05 18:48:06;;;;;;;;;;;;;;;;;;7392227;19;19915;-54
2021/12/05 18:50:34;;;;;;;;;;;;;;;;;;7391795;19;19964;-54
2021/12/05 18:53:02;;;;;;;;;;;;;;;;;;7391610;19;20336;-54
2021/12/05 18:55:32;;;;;;;;;;;;;;;;;;7391892;19;20329;-58
2021/12/05 18:58:10;;;;;;;;;;;;;;;;;;7390816;19;19921;-52
2021/12/05 19:04:20;;;;;;;;;;;;;;;;;;7397973;19;19919;-52
2021/12/05 19:06:24;;;;;;;;;;;;;;;;;;7398878;19;19982;-54
2021/12/05 19:11:44;;;;;;;;;;;;;;;;;;7398882;19;19915;-54
2021/12/05 19:14:19;;;;;;;;;;;;;;;;;;7399368;19;19926;-57
2021/12/05 19:16:48;;;;;;;;;;;;;;;;;;7398806;19;19935;-50
2021/12/05 19:19:17;;;;;;;;;;;;;;;;;;7396279;19;19915;-58
2021/12/05 19:21:47;;;;;;;;;;;;;;;;;;7398812;19;19915;-55
2021/12/05 19:24:15;;;;;;;;;;;;;;;;;;7396464;19;19918;-53
2021/12/05 19:26:42;;;;;;;;;;;;;;;;;;7398786;19;19915;-56
2021/12/05 19:29:10;;;;;;;;;;;;;;;;;;7398984;19;19918;-54
2021/12/05 19:31:39;;;;;;;;;;;;;;;;;;7398703;19;19923;-55
2021/12/05 19:34:07;;;;;;;;;;;;;;;;;;7398037;19;19919;-50
2021/12/05 19:36:35;;;;;;;;;;;;;;;;;;7398272;19;19907;-49
2021/12/05 19:39:03;;;;;;;;;;;;;;;;;;7395613;19;20333;-54
2021/12/05 19:41:32;;;;;;;;;;;;;;;;;;7397793;19;19921;-50
2021/12/05 19:44:01;;;;;;;;;;;;;;;;;;7397508;19;19915;-53
2021/12/05 19:46:29;;;;;;;;;;;;;;;;;;7398193;19;19923;-50
2021/12/05 19:48:58;;;;;;;;;;;;;;;;;;7398101;19;19915;-60
2021/12/05 19:51:27;;;;;;;;;;;;;;;;;;7397685;19;19964;-54
2021/12/05 19:53:58;;;;;;;;;;;;;;;;;;7397852;19;19931;-51
2021/12/05 19:56:27;;;;;;;;;;;;;;;;;;7397496;19;20332;-59
2021/12/05 19:58:55;;;;;;;;;;;;;;;;;;7395848;19;19918;-57
2021/12/05 20:01:22;;;;;;;;;;;;;;;;;;7397264;19;19918;-59
2021/12/05 20:03:50;;;;;;;;;;;;;;;;;;7397338;19;19954;-54
2021/12/05 20:06:20;;;;;;;;;;;;;;;;;;7397117;19;19935;-54
2021/12/05 20:08:48;;;;;;;;;;;;;;;;;;7396830;19;19922;-53
2021/12/05 20:11:16;;;;;;;;;;;;;;;;;;7393491;19;20336;-55
2021/12/05 20:13:44;;;;;;;;;;;;;;;;;;7397499;19;19993;-56
2021/12/05 20:16:11;;;;;;;;;;;;;;;;;;7396630;19;19914;-53
2021/12/05 20:18:41;;;;;;;;;;;;;;;;;;7395050;19;19915;-53
2021/12/05 20:21:10;;;;;;;;;;;;;;;;;;7400698;19;19914;-52
2021/12/05 20:23:42;;;;;;;;;;;;;;;;;;7395506;19;19998;-53
2021/12/05 20:26:11;;;;;;;;;;;;;;;;;;7396277;19;19966;-52
2021/12/05 20:28:40;;;;;;;;;;;;;;;;;;7395978;19;19918;-59
2021/12/05 20:31:10;;;;;;;;;;;;;;;;;;7395963;19;20248;-57
2021/12/05 20:33:39;;;;;;;;;;;;;;;;;;7396349;19;19914;-50
2021/12/05 20:36:09;;;;;;;;;;;;;;;;;;7396139;19;19921;-51
2021/12/05 20:38:37;;;;;;;;;;;;;;;;;;7394549;19;19927;-50
2021/12/05 20:41:06;;;;;;;;;;;;;;;;;;7395938;19;19919;-51
2021/12/05 20:43:34;;;;;;;;;;;;;;;;;;7395513;19;19918;-54
2021/12/05 20:46:01;;;;;;;;;;;;;;;;;;7394160;19;19928;-50
2021/12/05 20:48:29;;;;;;;;;;;;;;;;;;7395491;19;20260;-54
2021/12/05 20:50:57;;;;;;;;;;;;;;;;;;7396459;19;19919;-59
2021/12/05 20:53:25;;;;;;;;;;;;;;;;;;7395739;19;19914;-55
2021/12/05 20:55:53;;;;;;;;;;;;;;;;;;7395380;19;20442;-58
2021/12/05 20:58:23;;;;;;;;;;;;;;;;;;7394753;19;19919;-54
2021/12/05 21:00:56;;;;;;;;;;;;;;;;;;7395149;19;20368;-59
2021/12/05 21:03:24;;;;;;;;;;;;;;;;;;7395646;19;19923;-56
2021/12/05 21:05:52;;;;;;;;;;;;;;;;;;7395423;19;19918;-56
2021/12/05 21:08:21;;;;;;;;;;;;;;;;;;7393338;19;19928;-57
2021/12/05 21:10:52;;;;;;;;;;;;;;;;;;7394770;19;19915;-55
2021/12/05 21:13:20;;;;;;;;;;;;;;;;;;7394672;19;20344;-56
2021/12/05 21:15:49;;;;;;;;;;;;;;;;;;7395038;19;19931;-57
2021/12/05 21:18:17;;;;;;;;;;;;;;;;;;7394575;19;19918;-56
2021/12/05 21:20:45;;;;;;;;;;;;;;;;;;7398258;19;19921;-57
2021/12/05 21:23:13;;;;;;;;;;;;;;;;;;7393809;19;20339;-50
2021/12/05 21:25:42;;;;;;;;;;;;;;;;;;7394792;19;19928;-55
2021/12/05 21:28:12;;;;;;;;;;;;;;;;;;7394492;19;19944;-51
2021/12/05 21:30:40;;;;;;;;;;;;;;;;;;7394441;19;19922;-57
2021/12/05 21:33:08;;;;;;;;;;;;;;;;;;7394793;19;19918;-57
2021/12/05 21:35:39;;;;;;;;;;;;;;;;;;7393865;19;19922;-58
2021/12/05 21:38:08;;;;;;;;;;;;;;;;;;7393493;19;20269;-60
2021/12/05 21:40:38;;;;;;;;;;;;;;;;;;7393591;19;19907;-58
2021/12/05 21:43:05;;;;;;;;;;;;;;;;;;7394629;19;19937;-53
2021/12/05 21:45:32;;;;;;;;;;;;;;;;;;7393159;19;19915;-57
2021/12/05 21:48:01;;;;;;;;;;;;;;;;;;7393533;19;19919;-53
2021/12/05 21:50:31;;;;;;;;;;;;;;;;;;7393813;19;19935;-53
2021/12/05 21:53:02;;;;;;;;;;;;;;;;;;7393999;19;20299;-57
2021/12/05 21:55:31;;;;;;;;;;;;;;;;;;7391717;19;19933;-56
2021/12/05 21:57:59;;;;;;;;;;;;;;;;;;7393697;19;19919;-52
2021/12/05 22:00:28;;;;;;;;;;;;;;;;;;7393866;19;19914;-56
2021/12/05 22:02:55;;;;;;;;;;;;;;;;;;7393169;19;19943;-52
2021/12/05 22:05:24;;;;;;;;;;;;;;;;;;7392875;19;19918;-52
2021/12/05 22:07:54;;;;;;;;;;;;;;;;;;7393273;19;19921;-51
2021/12/05 22:10:26;;;;;;;;;;;;;;;;;;7393273;19;19951;-50
2021/12/05 22:12:55;;;;;;;;;;;;;;;;;;7392523;19;20364;-53
2021/12/05 22:15:25;;;;;;;;;;;;;;;;;;7392210;19;19930;-48
2021/12/05 22:17:53;;;;;;;;;;;;;;;;;;7392855;19;19926;-52
2021/12/05 22:20:27;;;;;;;;;;;;;;;;;;7395483;19;19919;-49
2021/12/05 22:22:59;;;;;;;;;;;;;;;;;;7392383;19;19922;-53
